Date,TemperatureHighF,TemperatureAvgF,TemperatureLowF,DewpointHighF,DewpointAvgF,DewpointLowF,HumidityHigh,HumidityAvg,HumidityLow,PressureMaxIn,PressureMinIn,WindSpeedMaxMPH,WindSpeedAvgMPH,GustSpeedMaxMPH,PrecipitationSumIn
2013-1-1,47,38,33,36,31,27,82,76,65,29.56,28.94,8,1,8,0.05
2013-1-2,51,46,38,46,40,32,84,80,75,29.71,29.56,10,1,10,0.11
2013-1-3,54,50,48,46,44,41,84,77,67,30.06,29.71,9,2,9,0.00
2013-1-4,54,49,47,44,41,38,78,73,63,30.12,30.06,7,1,7,0.00
2013-1-5,53,48,41,42,40,34,79,72,62,30.12,29.92,10,1,10,0.05
2013-1-6,51,44,37,43,38,31,81,76,71,30.09,29.83,7,0,7,0.00
2013-1-7,49,48,47,44,42,40,83,80,77,29.83,29.65,5,0,5,0.34
2013-1-8,53,46,36,48,40,30,85,79,66,29.83,29.59,9,1,9,0.08
2013-1-9,44,36,33,37,30,28,82,80,78,29.83,29.80,3,0,3,0.00
2013-1-10,37,35,34,31,27,-100,79,76,77,29.65,29.59,0,0,0,0.00
2013-1-11,45,37,33,35,30,26,82,76,66,29.68,29.59,4,0,4,0.00
2013-1-12,46,34,30,32,28,23,83,76,50,29.77,29.53,3,0,3,0.00
2013-1-13,36,34,32,33,31,26,93,87,79,29.80,29.62,4,0,4,0.03
2013-1-14,40,34,29,36,31,26,97,90,79,29.62,29.39,5,0,5,0.00
2013-1-15,36,30,24,32,28,23,95,91,80,29.56,29.47,5,0,5,0.00
2013-1-16,34,30,24,27,25,22,96,83,71,29.59,29.47,5,0,5,0.00
2013-1-17,36,33,32,28,25,22,78,71,57,29.65,29.42,6,0,6,0.00
2013-1-18,34,32,29,27,22,19,80,67,56,29.42,29.18,12,2,12,0.00
2013-1-19,37,33,30,30,27,24,87,80,68,29.39,29.21,6,0,6,0.00
2013-1-20,34,33,32,28,26,23,81,74,66,29.36,29.18,6,1,6,0.00
2013-1-21,35,34,33,31,29,25,90,82,71,29.18,29.09,8,2,8,0.00
2013-1-22,37,33,30,32,29,26,93,83,71,29.47,29.12,10,0,10,0.09
2013-1-23,36,33,29,31,29,26,92,87,79,29.62,29.47,3,0,3,0.00
2013-1-24,38,34,32,32,30,28,91,84,69,29.71,29.62,8,1,8,0.00
2013-1-25,36,34,33,34,30,26,92,84,71,29.62,29.03,9,1,9,0.08
2013-1-26,43,38,33,42,36,31,97,91,80,29.24,28.59,13,2,13,0.26
2013-1-27,46,41,36,45,38,34,98,91,82,28.88,28.44,13,3,13,0.45
2013-1-28,45,40,36,43,38,34,94,91,83,29.00,28.50,17,4,17,0.33
2013-1-29,46,43,41,44,40,-100,94,90,87,29.00,28.68,11,3,11,0.03
2013-1-30,46,42,38,42,37,34,91,82,67,29.33,28.85,11,3,11,0.12
2013-1-31,47,41,37,42,38,34,95,89,81,29.33,28.85,17,3,17,0.50
2013-2-1,44,38,30,41,34,26,95,86,72,29.47,29.00,8,1,8,0.14
2013-2-2,40,33,27,32,28,24,91,82,69,29.86,29.47,8,0,8,0.00
2013-2-3,49,44,35,46,40,31,96,88,76,29.71,29.21,13,3,13,0.08
2013-2-4,48,38,32,46,34,29,95,86,77,29.27,29.00,14,4,14,0.25
2013-2-5,43,37,30,39,33,27,93,85,65,29.21,28.74,13,2,13,0.16
2013-2-6,41,37,30,30,25,21,76,63,51,29.80,29.21,10,2,10,0.00
2013-2-7,41,35,29,33,29,23,87,79,72,29.80,29.65,4,0,4,0.00
2013-2-8,45,37,30,36,33,28,94,85,70,29.86,29.74,5,0,5,0.12
2013-2-9,41,39,37,40,37,36,97,94,91,29.80,29.44,3,0,3,0.08
2013-2-10,38,36,34,36,34,33,97,94,88,29.44,29.03,6,1,6,0.30
2013-2-11,42,36,32,34,29,23,88,75,53,29.59,29.09,6,1,6,0.00
2013-2-12,38,34,31,30,28,25,84,77,66,29.74,29.59,4,0,4,0.00
2013-2-13,44,35,31,43,32,26,98,89,77,29.74,29.18,12,2,12,0.36
2013-2-14,48,43,40,44,41,39,97,91,84,29.47,29.21,9,2,9,0.05
2013-2-15,50,41,35,42,37,33,94,86,70,29.77,29.47,6,1,6,0.00
2013-2-16,48,42,36,43,40,33,95,90,82,29.77,29.74,6,0,6,0.00
2013-2-17,48,41,30,41,36,27,94,82,64,29.77,29.71,7,0,7,0.00
2013-2-18,46,34,27,35,29,25,95,84,61,29.80,29.71,5,0,5,0.00
2013-2-19,46,34,26,37,29,23,93,84,58,29.80,29.74,4,0,4,0.00
2013-2-20,42,36,28,37,31,24,94,85,73,29.95,29.80,5,0,5,0.00
2013-2-21,38,31,24,28,24,21,91,74,57,29.98,29.92,8,0,8,0.00
2013-2-22,37,34,32,25,22,19,71,61,55,29.98,29.92,4,0,4,0.00
2013-2-23,40,34,31,28,25,21,84,70,49,30.06,29.92,4,0,4,0.00
2013-2-24,41,34,27,37,30,24,95,86,77,30.15,30.04,4,0,4,0.04
2013-2-25,45,35,28,37,30,26,97,85,59,30.30,30.15,4,0,4,0.00
2013-2-26,47,38,30,35,32,28,96,83,60,30.36,30.27,5,0,5,0.00
2013-2-27,48,35,27,40,31,24,92,85,71,30.36,30.27,4,0,4,0.00
2013-2-28,47,38,28,41,34,26,95,88,75,30.27,30.15,4,0,4,0.00
2013-3-1,52,40,31,40,34,27,96,81,55,30.21,30.12,3,0,3,0.00
2013-3-2,54,43,30,44,38,27,94,82,66,30.12,29.92,6,0,6,0.00
2013-3-3,50,44,40,42,38,34,91,79,66,29.92,29.77,5,0,5,0.00
2013-3-4,50,40,32,37,32,27,87,75,52,29.77,29.42,6,0,6,0.00
2013-3-5,49,38,30,38,30,26,88,75,54,29.42,29.30,6,0,6,0.00
2013-3-6,42,39,35,38,34,30,97,83,75,29.36,29.30,6,1,6,0.05
2013-3-7,46,41,39,43,39,36,97,92,85,29.30,29.18,8,1,8,0.08
2013-3-8,41,40,38,37,36,35,89,86,79,29.36,29.18,8,2,8,0.03
2013-3-9,39,38,35,36,32,23,92,82,60,29.56,29.36,8,2,8,0.04
2013-3-10,38,33,25,32,25,20,90,73,56,29.77,29.56,7,1,7,0.10
2013-3-11,36,28,20,24,19,13,90,69,51,29.80,29.77,9,1,9,0.08
2013-3-12,45,30,15,31,20,10,80,67,53,29.80,29.56,6,0,6,0.03
2013-3-13,44,35,26,27,22,15,83,60,44,29.65,29.56,6,1,6,0.00
2013-3-14,47,36,25,38,29,16,87,75,66,29.65,29.24,6,1,6,0.00
2013-3-15,50,40,34,42,35,29,92,82,66,29.24,29.00,6,1,6,0.10
2013-3-16,38,35,32,34,32,28,95,90,88,29.03,28.85,4,0,4,0.19
2013-3-17,42,36,30,39,34,28,98,91,83,28.91,28.77,8,0,8,0.18
2013-3-18,39,36,32,37,33,29,97,90,78,29.18,28.88,8,2,8,0.03
2013-3-19,37,34,32,36,32,30,98,95,89,29.30,29.18,11,2,11,0.37
2013-3-20,42,35,29,34,30,25,98,83,61,29.71,29.30,6,1,6,0.00
2013-3-21,41,33,24,28,24,22,92,72,52,29.74,29.62,9,1,9,0.00
2013-3-22,36,34,33,30,27,-100,88,74,62,29.65,29.56,9,2,9,0.00
2013-3-23,34,33,32,30,25,20,87,71,60,29.86,29.65,9,2,9,0.04
2013-3-24,38,34,32,23,21,19,67,59,50,29.95,29.83,10,3,10,0.00
2013-3-25,40,34,31,24,22,19,73,61,52,29.98,29.92,8,2,8,0.00
2013-3-26,42,34,28,26,22,18,74,62,48,29.92,29.83,9,1,9,0.00
2013-3-27,40,33,28,30,25,18,88,73,52,29.83,29.77,9,1,9,0.00
2013-3-28,43,35,29,29,24,17,87,66,47,29.80,29.71,8,1,8,0.00
2013-3-29,45,34,27,29,24,19,80,66,48,29.71,29.56,6,0,6,0.00
2013-3-30,42,34,26,30,22,18,79,62,49,29.68,29.62,6,0,6,0.00
2013-3-31,45,34,24,26,21,17,77,60,42,29.68,29.62,9,0,9,0.00
2013-4-1,46,34,29,25,21,18,70,58,43,29.77,29.65,6,1,6,0.00
2013-4-2,46,36,26,28,23,17,86,61,48,29.92,29.77,6,0,6,0.00
2013-4-3,49,35,23,32,23,18,88,63,42,29.98,29.92,6,0,6,0.00
2013-4-4,48,39,32,32,26,21,76,59,38,29.98,29.89,7,1,7,0.00
2013-4-5,48,39,30,32,25,18,80,58,43,29.95,29.89,8,1,8,0.00
2013-4-6,53,38,26,35,25,17,74,59,47,29.98,29.86,6,1,6,0.00
2013-4-7,50,39,31,34,29,22,83,67,49,29.86,29.62,6,1,6,0.00
2013-4-8,46,39,34,32,26,19,80,60,43,29.62,29.39,6,1,6,0.00
2013-4-9,49,39,30,31,25,20,78,58,40,29.39,29.30,8,1,8,0.00
2013-4-10,49,39,29,35,30,23,85,70,51,29.36,29.24,7,0,7,0.00
2013-4-11,49,41,37,36,33,31,85,72,54,29.24,29.06,4,0,4,0.00
2013-4-12,49,41,37,37,35,31,87,78,64,29.30,29.03,6,0,6,0.00
2013-4-13,57,47,39,46,38,34,90,72,45,29.39,29.06,10,2,10,0.06
2013-4-14,60,53,50,50,47,44,92,81,64,29.09,29.00,18,5,18,0.36
2013-4-15,61,51,46,50,45,42,90,78,63,29.39,29.09,13,3,13,0.17
2013-4-16,56,49,41,45,40,34,88,73,52,29.50,29.00,16,4,16,0.16
2013-4-17,54,46,38,51,42,32,95,87,74,29.50,28.77,15,2,15,0.84
2013-4-18,57,49,44,46,42,37,95,77,56,29.56,28.74,12,4,12,0.25
2013-4-19,60,47,34,41,35,29,87,64,46,30.06,29.56,9,1,9,0.00
2013-4-20,59,49,38,42,36,31,83,63,46,30.06,29.80,12,2,12,0.00
2013-4-21,57,47,41,43,39,34,85,72,54,29.80,29.50,9,2,9,0.08
2013-4-22,55,47,38,48,40,34,89,78,59,29.50,29.30,11,2,11,0.00
2013-4-23,58,50,45,43,39,34,83,67,52,29.71,29.39,17,3,17,0.00
2013-4-24,57,50,44,50,39,29,92,68,46,29.86,29.53,9,2,9,0.25
2013-4-25,56,45,39,41,36,29,82,70,56,29.86,29.68,8,1,8,0.12
2013-4-26,56,44,36,40,34,29,85,68,48,29.71,29.50,8,2,8,0.04
2013-4-27,57,45,35,35,30,24,77,57,41,29.80,29.62,9,1,9,0.00
2013-4-28,54,45,38,44,36,28,85,72,55,29.62,29.27,11,3,11,0.13
2013-4-29,56,47,39,42,35,30,83,64,46,29.77,29.30,14,3,14,0.00
2013-4-30,60,47,32,39,32,27,83,57,37,29.95,29.77,6,1,6,0.00
2013-5-1,59,48,38,43,33,25,77,58,40,29.92,29.80,9,2,9,0.00
2013-5-2,59,46,33,42,34,25,82,64,46,29.92,29.65,12,2,12,0.00
2013-5-3,55,49,42,49,45,37,91,84,81,29.65,29.33,11,2,11,0.50
2013-5-4,54,46,35,41,38,32,91,73,52,29.56,29.42,12,2,12,0.00
2013-5-5,68,56,46,55,47,40,86,73,58,29.68,29.56,15,2,15,0.00
2013-5-6,61,53,47,51,47,43,90,80,68,29.71,29.65,8,1,8,0.00
2013-5-7,74,57,39,51,43,36,90,63,38,29.74,29.47,9,1,9,0.00
2013-5-8,60,53,46,52,44,34,86,71,53,29.47,29.09,12,2,12,0.04
2013-5-9,58,49,42,43,40,37,91,73,53,29.18,28.94,12,2,12,0.00
2013-5-10,61,50,41,48,42,37,87,76,57,29.30,29.00,8,1,8,0.04
2013-5-11,51,46,41,46,42,37,90,83,74,29.42,29.15,10,2,10,0.13
2013-5-12,55,48,40,49,43,35,87,81,73,29.44,29.24,17,2,17,0.08
2013-5-13,53,43,37,45,38,34,88,82,69,29.30,29.09,15,3,15,0.36
2013-5-14,58,46,38,44,39,33,90,76,53,29.09,29.00,13,3,13,0.12
2013-5-15,58,45,34,41,36,31,90,71,52,29.06,28.94,6,1,6,0.10
2013-5-16,61,48,35,43,36,31,89,65,44,29.33,29.06,6,0,6,0.00
2013-5-17,64,52,40,43,37,33,93,59,37,29.50,29.33,7,1,7,0.00
2013-5-18,56,51,48,53,46,36,98,85,56,29.50,29.33,10,1,10,0.61
2013-5-19,61,54,49,55,51,48,97,90,79,29.62,29.44,6,0,6,0.00
2013-5-20,74,62,53,61,55,51,92,78,59,29.65,29.53,6,1,6,0.00
2013-5-21,68,59,49,54,45,38,84,61,44,29.74,29.65,9,1,9,0.00
2013-5-22,62,52,41,44,35,28,75,55,37,29.74,29.68,10,2,10,0.00
2013-5-23,55,46,38,34,30,26,72,54,41,29.68,29.56,12,2,12,0.00
2013-5-24,58,50,42,36,32,26,67,49,42,29.86,29.59,12,2,12,0.00
2013-5-25,68,53,36,45,36,29,79,55,37,29.86,29.74,6,1,6,0.00
2013-5-26,67,54,41,48,40,32,77,61,49,29.77,29.39,8,1,8,0.00
2013-5-27,55,50,46,49,44,39,87,81,73,29.39,29.06,12,2,12,0.12
2013-5-28,60,52,44,48,44,40,91,76,56,29.42,29.15,6,1,6,0.04
2013-5-29,66,56,43,51,46,39,92,70,48,29.56,29.42,7,1,7,0.00
2013-5-30,69,60,51,50,47,44,83,63,46,29.68,29.53,8,0,8,0.00
2013-5-31,68,56,46,53,44,35,84,63,48,29.83,29.68,7,1,7,0.00
2013-6-1,65,52,39,49,39,33,84,60,47,29.95,29.83,8,1,8,0.00
2013-6-2,68,56,42,47,39,33,77,56,41,30.09,29.95,6,1,6,0.00
2013-6-3,74,60,48,55,48,38,76,65,49,30.15,30.06,5,0,5,0.00
2013-6-4,72,62,52,51,47,42,85,60,43,30.12,29.92,6,1,6,0.00
2013-6-5,75,60,52,53,48,43,75,64,44,29.92,29.74,6,0,6,0.00
2013-6-6,73,60,47,54,46,42,86,62,37,29.86,29.80,4,0,4,0.00
2013-6-7,70,59,46,55,46,40,83,62,47,29.95,29.86,6,1,6,0.00
2013-6-8,78,62,45,54,45,40,85,58,36,29.95,29.68,5,0,5,0.00
2013-6-9,70,58,48,52,47,42,85,68,50,29.74,29.56,6,1,6,0.00
2013-6-10,67,56,49,52,48,43,86,73,58,29.62,29.50,6,0,6,0.00
2013-6-11,66,56,48,54,49,43,89,78,50,29.53,29.30,10,1,10,0.13
2013-6-12,67,59,53,57,51,-100,92,78,63,29.33,29.21,7,1,7,0.04
2013-6-13,67,60,51,46,42,38,69,52,45,29.44,29.24,9,3,9,0.00
2013-6-14,70,57,45,52,45,41,85,65,47,29.47,29.18,10,2,10,0.04
2013-6-15,56,52,48,48,46,43,88,80,66,29.24,29.03,12,2,12,0.08
2013-6-16,69,58,48,53,48,45,90,73,51,29.62,29.24,4,0,4,0.00
2013-6-17,71,60,48,57,50,44,87,70,50,29.71,29.62,4,0,4,0.00
2013-6-18,77,64,55,55,50,45,79,63,44,29.65,29.53,6,1,6,0.00
2013-6-19,72,60,50,50,46,41,82,61,43,29.65,29.56,6,1,6,0.00
2013-6-20,78,64,50,54,48,41,79,59,39,29.65,29.39,8,1,8,0.00
2013-6-21,71,63,56,54,49,42,74,61,46,29.39,29.21,6,1,6,0.00
2013-6-22,66,57,51,56,50,47,87,78,65,29.21,28.91,6,2,6,0.26
2013-6-23,66,57,52,54,48,43,89,74,57,29.59,29.00,10,2,10,0.12
2013-6-24,67,57,48,51,41,37,77,57,44,29.92,29.59,7,2,7,0.00
2013-6-25,69,57,44,50,44,37,78,63,45,30.04,29.92,6,1,6,0.00
2013-6-26,71,60,47,53,44,38,85,58,42,30.06,30.04,8,1,8,0.00
2013-6-27,61,56,50,55,48,39,85,76,59,30.06,29.80,5,0,5,0.16
2013-6-28,64,57,50,58,52,43,92,83,70,29.80,29.56,8,2,8,0.25
2013-6-29,65,56,48,53,48,43,85,75,59,29.80,29.74,8,2,8,0.00
2013-6-30,68,58,51,58,51,45,85,78,68,29.77,29.50,10,2,10,0.05
2013-7-1,67,56,49,51,45,39,88,67,46,29.56,29.50,7,2,7,0.04
2013-7-2,59,54,50,53,48,42,91,81,68,29.53,29.09,10,1,10,0.08
2013-7-3,68,60,54,59,53,50,93,78,62,29.44,29.09,6,1,6,0.00
2013-7-4,65,60,54,61,52,45,93,76,56,29.80,29.36,12,2,12,0.21
2013-7-5,72,62,53,55,51,46,89,68,52,29.98,29.80,10,2,10,0.00
2013-7-6,77,65,48,60,51,44,89,63,44,30.04,29.92,8,1,8,0.00
2013-7-7,78,68,59,59,54,49,82,62,43,30.18,30.04,6,1,6,0.00
2013-7-8,83,68,54,62,55,49,90,66,44,30.27,30.04,5,0,5,0.00
2013-7-9,85,72,57,67,57,52,86,61,41,30.06,29.89,7,1,7,0.00
2013-7-10,76,66,58,59,55,50,84,69,52,30.01,29.89,4,0,4,0.00
2013-7-11,84,70,57,64,58,50,81,67,49,29.95,29.80,6,0,6,0.00
2013-7-12,86,72,58,66,58,54,88,64,41,29.86,29.77,8,1,8,0.00
2013-7-13,80,68,58,64,54,43,86,61,44,29.89,29.80,7,1,7,0.00
2013-7-14,74,63,53,54,48,43,78,59,45,29.89,29.77,9,1,9,0.00
2013-7-15,72,62,52,56,51,44,83,69,58,29.83,29.80,6,1,6,0.00
2013-7-16,77,67,61,62,56,52,82,68,51,29.86,29.80,6,1,6,0.00
2013-7-17,80,68,56,60,54,50,86,63,43,29.92,29.86,8,1,8,0.00
2013-7-18,83,70,57,67,57,51,84,65,49,29.98,29.92,6,1,6,0.00
2013-7-19,84,69,54,62,55,50,89,64,40,30.01,29.89,6,0,6,0.00
2013-7-20,84,67,55,62,56,51,90,68,46,29.98,29.83,6,0,6,0.00
2013-7-21,74,64,57,56,54,51,91,72,50,29.92,29.74,8,1,8,0.00
2013-7-22,74,64,59,60,57,53,86,77,61,29.77,29.59,8,1,8,0.00
2013-7-23,74,64,60,69,61,57,93,88,76,29.59,29.44,5,0,5,0.25
2013-7-24,80,68,58,66,58,52,95,73,45,29.53,29.42,6,1,6,0.00
2013-7-25,72,65,60,64,59,54,91,81,69,29.50,29.39,4,0,4,0.45
2013-7-26,78,66,57,63,57,51,91,74,53,29.44,29.39,6,1,6,0.00
2013-7-27,79,65,52,60,55,50,94,72,45,29.44,29.24,6,0,6,0.05
2013-7-28,69,62,56,61,57,54,92,86,73,29.24,29.15,5,0,5,0.87
2013-7-29,69,61,55,63,57,-100,95,90,78,29.36,29.21,4,0,4,0.25
2013-7-30,72,60,50,60,53,49,97,80,50,29.42,29.33,8,1,8,0.13
2013-7-31,73,60,50,62,53,48,96,78,49,29.50,29.36,4,0,4,0.12
2013-8-1,73,64,57,65,60,55,95,87,73,29.36,29.21,6,1,6,0.33
2013-8-2,76,67,58,61,56,51,92,72,48,29.21,29.12,12,2,12,0.00
2013-8-3,70,61,56,53,51,46,83,69,48,29.44,29.18,12,2,12,0.00
2013-8-4,72,61,52,57,51,47,90,72,51,29.50,29.44,8,1,8,0.05
2013-8-5,73,60,52,58,50,43,88,72,49,29.47,29.36,8,1,8,0.00
2013-8-6,70,58,47,52,48,42,86,70,52,29.59,29.47,1,0,1,0.00
2013-8-7,72,60,51,57,52,47,91,76,53,29.68,29.59,0,0,0,0.08
2013-8-8,74,60,48,60,53,47,95,79,57,29.71,29.53,6,0,6,0.00
2013-8-9,71,61,55,59,52,45,91,73,54,29.77,29.50,9,1,9,0.04
2013-8-10,68,60,53,53,49,46,84,68,51,29.77,29.59,6,1,6,0.00
2013-8-11,68,57,52,54,50,47,89,76,54,29.62,29.50,10,2,10,0.08
2013-8-12,69,58,51,53,48,44,90,70,49,29.68,29.47,8,2,8,0.05
2013-8-13,70,58,46,52,46,42,87,66,48,29.80,29.68,6,1,6,0.00
2013-8-14,73,62,55,58,53,46,90,73,54,29.80,29.56,6,0,6,0.04
2013-8-15,70,64,60,64,60,57,93,87,76,29.56,29.36,8,1,8,0.29
2013-8-16,71,61,53,59,54,49,94,79,57,29.47,29.36,7,1,7,0.04
2013-8-17,70,60,54,63,55,49,92,83,68,29.47,29.00,8,2,8,0.20
2013-8-18,66,56,50,54,50,45,91,78,61,29.44,29.09,13,2,13,0.05
2013-8-19,68,58,51,55,50,46,87,74,56,29.80,29.44,8,2,8,0.00
2013-8-20,72,60,53,58,53,48,90,79,58,29.89,29.80,6,1,6,0.04
2013-8-21,72,63,56,63,58,53,94,84,68,29.80,29.65,7,1,7,0.08
2013-8-22,70,61,56,61,57,54,94,86,69,29.77,29.62,6,1,6,0.00
2013-8-23,69,60,50,62,56,49,95,86,74,29.62,29.47,4,0,4,0.00
2013-8-24,68,60,50,58,53,46,93,78,59,29.59,29.53,6,0,6,0.00
2013-8-25,73,60,47,60,52,44,92,76,57,29.80,29.59,1,0,1,0.00
2013-8-26,74,61,50,61,54,48,93,78,64,29.83,29.71,4,0,4,0.00
2013-8-27,70,59,52,60,54,47,91,82,69,29.86,29.71,5,0,5,0.00
2013-8-28,66,58,52,56,50,44,89,76,58,29.86,29.74,7,1,7,0.00
2013-8-29,66,59,51,58,54,44,90,83,73,29.74,29.65,6,1,6,0.04
2013-8-30,70,59,49,63,54,41,94,83,70,29.74,29.47,10,2,10,0.00
2013-8-31,64,54,47,51,44,38,85,70,46,29.95,29.74,9,2,9,0.00
2013-9-1,60,56,53,54,49,45,87,77,67,29.95,29.80,12,3,12,0.00
2013-9-2,66,62,58,61,57,54,90,86,81,29.92,29.77,10,2,10,0.00
2013-9-3,74,63,53,62,57,50,92,80,59,29.92,29.80,8,1,8,0.00
2013-9-4,71,60,51,57,51,48,96,76,52,29.83,29.53,10,1,10,0.00
2013-9-5,67,57,44,51,45,36,86,67,45,29.56,29.50,6,1,6,0.00
2013-9-6,58,48,41,48,42,-100,91,79,61,29.59,29.53,5,0,5,0.58
2013-9-7,59,52,46,52,46,43,95,83,64,29.56,29.39,7,1,7,0.17
2013-9-8,62,52,44,49,45,41,92,78,59,29.62,29.56,6,0,6,0.00
2013-9-9,63,52,46,52,47,43,93,84,58,29.80,29.59,6,0,6,0.00
2013-9-10,67,54,44,52,47,42,94,77,49,29.92,29.80,6,0,6,0.00
2013-9-11,62,55,48,58,52,44,94,89,83,29.92,29.71,3,0,3,0.29
2013-9-12,68,59,52,60,56,50,96,90,74,29.74,29.50,6,0,6,0.08
2013-9-13,53,50,46,50,48,45,96,90,82,29.74,29.59,4,0,4,0.08
2013-9-14,63,49,38,51,44,38,98,84,56,29.74,29.59,6,0,6,0.00
2013-9-15,59,50,40,58,46,38,96,86,62,29.59,28.85,13,2,13,0.50
2013-9-16,57,47,39,48,42,38,95,84,67,29.00,28.94,12,2,12,0.13
2013-9-17,59,49,42,48,43,39,90,80,65,29.03,28.94,7,2,7,0.03
2013-9-18,59,48,40,49,43,38,97,82,57,29.39,29.03,12,1,12,0.00
2013-9-19,56,50,46,54,48,42,95,91,86,29.42,29.12,4,0,4,0.30
2013-9-20,63,53,45,53,48,44,97,83,61,29.68,29.42,9,1,9,0.04
2013-9-21,64,56,48,59,52,-100,93,87,79,29.77,29.68,7,1,7,0.00
2013-9-22,71,62,55,60,56,52,91,82,63,29.92,29.77,9,2,9,0.00
2013-9-23,68,60,51,61,56,49,95,87,75,29.92,29.77,3,0,3,0.00
2013-9-24,61,58,56,58,56,54,95,92,87,29.77,29.59,6,0,6,0.00
2013-9-25,57,54,46,55,51,43,96,89,79,29.71,29.53,7,1,7,0.00
2013-9-26,60,50,39,51,46,38,97,86,62,29.77,29.71,3,0,3,0.03
2013-9-27,60,55,52,56,53,49,95,91,83,29.71,29.59,4,0,4,0.00
2013-9-28,67,55,47,58,51,45,97,85,64,29.59,29.47,6,0,6,0.00
2013-9-29,63,52,42,52,45,40,96,79,55,29.56,29.50,6,1,6,0.00
2013-9-30,62,53,46,50,46,42,93,76,58,29.53,29.44,9,1,9,0.00
2013-10-1,60,53,44,49,45,40,90,76,58,29.53,29.44,8,1,8,0.00
2013-10-2,59,56,53,56,52,47,96,86,79,29.47,29.39,7,1,7,0.55
2013-10-3,66,60,57,63,58,56,97,94,86,29.42,29.15,6,1,6,0.78
2013-10-4,62,58,54,59,56,52,97,94,88,29.47,29.15,6,1,6,0.13
2013-10-5,62,56,51,56,52,49,95,87,72,29.74,29.47,6,1,6,0.00
2013-10-6,63,58,54,60,56,52,96,91,84,29.74,29.68,8,1,8,0.00
2013-10-7,69,62,58,61,58,55,96,88,70,29.74,29.62,10,2,10,0.04
2013-10-8,61,56,50,58,52,45,93,87,78,29.83,29.62,8,2,8,0.00
2013-10-9,52,48,42,47,41,30,94,77,59,29.83,29.62,9,2,9,0.08
2013-10-10,53,43,35,36,31,-100,85,64,48,30.09,29.83,8,2,8,0.00
2013-10-11,52,45,37,42,37,30,83,74,66,30.18,30.09,8,1,8,0.00
2013-10-12,54,50,47,47,44,40,91,80,66,30.15,29.92,7,1,7,0.00
2013-10-13,54,50,45,48,45,42,94,86,67,29.92,29.68,8,1,8,0.00
2013-10-14,55,50,46,49,46,43,96,87,72,29.68,29.56,5,0,5,0.00
2013-10-15,56,49,39,48,45,37,95,87,72,29.65,29.56,6,0,6,0.00
2013-10-16,53,44,34,47,42,33,98,92,75,29.65,29.24,6,0,6,0.41
2013-10-17,56,50,46,54,49,45,97,96,92,29.62,29.30,5,0,5,0.30
2013-10-18,53,49,42,52,48,42,98,96,88,29.65,29.30,6,0,6,0.33
2013-10-19,60,54,50,58,53,49,98,96,93,29.30,29.06,6,1,6,0.83
2013-10-20,57,52,47,55,51,47,98,97,90,29.09,29.03,5,0,5,0.20
2013-10-21,56,52,49,56,51,48,98,96,92,29.15,28.88,4,0,4,0.25
2013-10-22,57,56,54,56,55,54,98,98,97,28.88,28.77,5,0,5,0.50
2013-10-23,56,48,44,50,41,-100,91,80,70,29.24,28.77,11,3,11,0.04
2013-10-24,56,48,43,50,44,41,95,88,73,29.53,29.24,8,1,8,0.00
2013-10-25,60,52,45,57,50,43,96,93,84,29.47,28.94,6,1,6,0.21
2013-10-26,54,51,44,53,48,43,97,92,77,29.09,28.77,11,1,11,0.20
2013-10-27,54,48,43,50,46,42,98,94,85,28.80,28.47,11,2,11,0.50
2013-10-28,51,47,43,49,45,42,97,94,87,29.00,28.50,6,1,6,0.05
2013-10-29,52,44,39,46,41,37,95,89,75,29.56,29.00,8,1,8,0.00
2013-10-30,53,44,37,51,43,36,98,94,83,29.59,29.27,8,1,8,0.20
2013-10-31,53,45,40,48,43,39,98,93,79,29.47,29.24,10,2,10,0.13
2013-11-1,51,44,38,46,41,37,98,90,76,29.30,29.21,9,2,9,0.03
2013-11-2,45,40,35,44,39,35,98,96,91,29.21,28.50,9,1,9,0.33
2013-11-3,49,41,32,41,37,30,95,84,68,28.94,28.62,12,2,12,0.00
2013-11-4,46,34,28,42,32,26,98,93,79,29.06,28.88,3,0,3,0.00
2013-11-5,42,34,29,42,34,28,98,97,96,29.00,28.85,6,0,6,0.09
2013-11-6,46,40,36,45,40,35,98,96,91,29.06,28.94,6,1,6,0.21
2013-11-7,49,42,36,44,40,35,98,92,80,29.18,29.03,10,2,10,0.20
2013-11-8,49,41,36,45,40,35,98,95,85,29.21,29.12,6,1,6,0.09
2013-11-9,41,35,29,41,34,28,98,98,96,29.33,29.15,3,0,3,0.08
2013-11-10,41,33,27,40,32,26,98,98,98,29.77,29.33,6,0,6,0.00
2013-11-11,53,47,41,52,46,40,98,96,89,29.68,29.47,8,2,8,0.08
2013-11-12,48,44,40,46,41,38,97,90,73,30.04,29.68,8,2,8,0.08
2013-11-13,50,44,39,45,42,38,96,90,74,30.06,29.47,10,2,10,0.09
2013-11-14,47,44,37,44,38,33,93,80,71,30.15,29.47,11,2,11,0.05
2013-11-15,50,46,37,47,44,34,94,91,86,30.15,30.04,9,1,9,0.00
2013-11-16,54,49,40,49,46,38,94,90,81,30.04,29.89,11,2,11,0.00
2013-11-17,43,39,32,42,38,32,98,96,89,30.04,29.56,3,0,3,0.03
2013-11-18,45,38,31,43,36,30,98,95,85,29.56,29.44,6,0,6,0.00
2013-11-19,41,32,25,40,30,25,98,94,85,29.71,29.30,10,1,10,0.08
2013-11-20,43,39,33,42,34,26,98,83,62,29.50,29.09,13,3,13,0.17
2013-11-21,40,35,26,30,26,23,89,73,61,29.86,29.50,6,0,6,0.00
2013-11-22,35,27,23,32,24,20,94,90,86,29.98,29.83,2,0,2,0.00
2013-11-23,40,34,27,38,33,25,97,95,93,30.12,29.98,0,0,0,0.00
2013-11-24,39,34,29,38,34,28,98,98,96,30.36,30.12,1,0,1,0.00
2013-11-25,38,33,26,38,32,26,98,98,98,30.39,30.33,0,0,0,0.00
2013-11-26,50,45,36,49,45,36,98,98,95,30.36,30.18,9,1,9,0.13
2013-11-27,52,50,47,49,48,46,96,94,89,30.18,30.15,6,1,6,0.00
2013-11-28,47,40,34,46,39,-100,98,97,95,30.27,30.04,4,0,4,0.00
2013-11-29,47,42,36,46,39,32,98,88,82,30.01,29.77,12,2,12,0.09
2013-11-30,40,34,31,39,33,30,97,93,86,30.06,29.95,4,0,4,0.00
2013-12-13,54,47,40,52,44,-100,94,89,86,29.53,29.33,8,2,8,0.00
2013-12-14,50,44,37,49,42,34,96,92,84,29.59,29.09,15,3,15,0.70
2013-12-15,49,43,37,46,41,36,98,93,83,29.50,29.18,13,2,13,0.22
2013-12-16,47,41,38,45,38,35,95,90,83,29.62,29.15,12,2,12,0.11
2013-12-17,42,39,34,40,36,33,96,90,85,29.74,29.39,13,2,13,0.00
2013-12-18,50,45,41,49,43,37,98,93,81,29.39,28.38,17,3,17,0.25
2013-12-19,42,37,34,37,34,32,96,90,79,29.15,28.47,13,3,13,0.30
2013-12-20,50,43,36,48,41,34,97,94,87,29.39,29.00,13,3,13,0.75
2013-12-21,46,43,39,44,40,36,94,88,83,29.15,28.91,15,3,15,0.11
2013-12-22,40,38,35,37,35,33,93,89,84,29.18,28.94,13,3,13,0.17
2013-12-23,47,40,34,46,38,32,98,93,89,29.18,27.91,9,2,9,0.33
2013-12-24,47,39,36,45,34,28,95,81,63,28.12,27.88,17,4,17,0.16
2013-12-25,44,39,36,37,35,33,91,84,72,28.74,28.12,12,3,12,0.09
2013-12-26,42,37,32,39,35,32,97,91,77,28.94,28.20,11,0,11,0.00
2013-12-27,44,42,37,43,41,35,98,95,91,28.44,27.79,16,1,16,0.88
2013-12-28,42,40,37,40,39,36,98,96,91,29.15,28.44,11,2,11,0.16
2013-12-29,43,40,36,42,39,35,97,95,90,29.44,29.09,8,1,8,0.17
2013-12-30,46,41,34,45,41,34,98,98,97,29.27,28.94,6,0,6,1.33
2013-12-31,44,40,34,42,39,34,98,94,87,29.24,28.88,13,1,13,0.00
2014-1-1,46,40,36,46,39,35,98,96,87,28.94,28.29,7,0,7,0.16
2014-1-2,44,42,38,43,40,36,97,94,89,28.77,28.35,8,1,8,0.00